createdAt,value
2023-03-27T01:22:10.092Z,53.20
2023-03-27T01:25:10.650Z,53.90
2023-03-27T01:28:11.866Z,54.20
2023-03-27T01:31:01.462Z,53.80
2023-03-27T01:33:31.181Z,53.30
2023-03-27T01:36:28.828Z,53.50
2023-03-27T01:39:01.716Z,53.60
2023-03-27T01:41:37.845Z,53.50
2023-03-27T01:46:52.664Z,53.00
2023-03-27T01:49:32.714Z,53.70
2023-03-27T01:52:06.768Z,53.90
2023-03-27T01:54:37.291Z,53.80
2023-03-27T01:57:22.165Z,53.80
2023-03-27T01:59:58.580Z,54.10
2023-03-27T02:03:00.327Z,54.50
2023-03-27T02:05:38.133Z,53.90
2023-03-27T02:08:11.598Z,53.80
2023-03-27T02:10:43.737Z,53.90
2023-03-27T02:13:36.466Z,54.10
2023-03-27T02:16:06.393Z,54.20
2023-03-27T02:18:37.859Z,54.20
2023-03-27T02:21:05.234Z,53.90
2023-03-27T02:23:32.913Z,53.60
2023-03-27T02:26:00.304Z,53.80
2023-03-27T02:28:34.137Z,53.90
2023-03-27T02:31:32.180Z,53.80
2023-03-27T02:34:19.374Z,53.50
2023-03-27T02:37:02.392Z,53.40
2023-03-27T02:39:39.553Z,53.60
2023-03-27T02:42:19.613Z,53.50
2023-03-27T08:55:32.342Z,53.00
2023-03-27T09:16:31.022Z,49.20
2023-03-27T09:19:15.404Z,46.70
2023-03-27T09:21:49.075Z,49.90
2023-03-27T09:24:29.964Z,51.50
2023-03-27T09:27:06.812Z,51.60
2023-03-27T09:29:39.408Z,51.30
2023-03-27T09:32:13.518Z,50.60
2023-03-27T09:34:40.674Z,51.00
2023-03-27T09:37:14.697Z,51.30
2023-03-27T09:39:49.943Z,51.90
2023-03-27T09:42:23.960Z,52.10
2023-03-27T09:44:56.792Z,52.40
2023-03-27T09:47:45.137Z,53.30
2023-03-27T09:50:44.353Z,54.20
2023-03-27T09:53:14.217Z,55.30
2023-03-27T09:55:56.721Z,56.50
2023-03-27T09:58:34.416Z,56.20
2023-03-27T10:01:08.934Z,56.10
2023-03-27T10:03:41.304Z,55.70
2023-03-27T10:06:14.532Z,55.10
2023-03-27T10:08:45.406Z,54.40
2023-03-27T10:11:21.972Z,54.40
2023-03-27T10:42:16.451Z,54.90
2023-03-27T10:52:27.064Z,52.60
2023-03-27T11:05:14.698Z,49.80
2023-03-27T11:07:51.020Z,46.20
2023-03-27T11:10:29.279Z,46.70
2023-03-27T11:13:24.276Z,45.20
2023-03-27T11:16:12.505Z,46.50
2023-03-27T11:23:56.302Z,45.20
2023-03-27T11:34:28.994Z,45.90
2023-03-27T11:37:39.819Z,50.90
2023-03-27T11:40:20.277Z,50.30
2023-03-27T11:45:17.592Z,50.10
2023-03-27T11:48:12.642Z,48.00
2023-03-27T11:50:58.889Z,46.50
2023-03-27T11:53:43.762Z,46.50
2023-03-27T11:56:38.635Z,48.00
2023-03-27T11:59:35.802Z,46.30
2023-03-27T12:02:23.726Z,45.80
2023-03-27T12:05:03.923Z,46.30
2023-03-27T12:07:39.111Z,42.70
2023-03-27T12:10:14.813Z,42.70
2023-03-27T12:12:53.306Z,41.20
2023-03-27T12:15:47.313Z,43.40
2023-03-27T12:18:36.166Z,46.00
2023-03-27T12:21:21.596Z,48.50
2023-03-27T12:23:57.203Z,48.40
2023-03-27T12:26:54.910Z,47.80
2023-03-27T12:29:53.960Z,49.40
2023-03-27T12:32:50.258Z,50.30
2023-03-27T12:35:21.696Z,48.60
2023-03-27T12:38:04.088Z,48.50
2023-03-27T12:40:40.566Z,48.50
2023-03-27T12:43:27.530Z,48.70
2023-03-27T12:46:14.891Z,48.90
2023-03-27T12:49:01.194Z,50.20
2023-03-27T12:51:51.204Z,48.10
2023-03-27T12:54:27.773Z,47.40
2023-03-27T12:57:05.925Z,47.30
2023-03-27T12:59:37.146Z,46.30
2023-03-27T13:02:03.954Z,46.50
2023-03-27T13:04:53.689Z,46.50
2023-03-27T13:07:43.333Z,46.70
2023-03-27T13:10:29.428Z,44.60
2023-03-27T13:13:06.023Z,45.00
2023-03-27T13:16:06.867Z,45.20
2023-03-27T13:19:07.672Z,45.60
2023-03-27T13:22:33.198Z,44.80
2023-03-27T13:30:40.903Z,45.00
2023-03-27T14:41:02.859Z,46.40
2023-03-27T14:43:31.028Z,39.50
2023-03-27T14:46:06.273Z,37.70
2023-03-27T14:48:42.448Z,37.70
2023-03-27T14:51:13.710Z,36.00
2023-03-27T14:53:45.273Z,35.10
2023-03-27T14:56:26.972Z,35.00
2023-03-27T14:58:57.917Z,37.50
2023-03-27T15:01:26.187Z,36.30
2023-03-27T15:03:53.913Z,36.50
2023-03-27T15:06:29.147Z,35.70
2023-03-27T15:08:59.690Z,37.00
2023-03-27T15:11:39.867Z,36.90
2023-03-27T15:14:24.156Z,35.60
2023-03-27T15:17:11.980Z,33.40
2023-03-27T15:19:49.157Z,36.10
2023-03-27T15:22:38.997Z,36.10
2023-03-27T15:25:17.414Z,34.70
2023-03-27T15:27:52.622Z,35.60
2023-03-27T15:30:33.566Z,35.50
2023-03-27T15:33:02.019Z,34.10
2023-03-27T15:35:35.115Z,34.20
2023-03-27T15:38:06.360Z,38.30
2023-03-27T15:40:40.910Z,34.00
2023-03-27T15:43:08.979Z,35.60
2023-03-27T15:45:39.921Z,36.10
2023-03-27T15:48:23.214Z,33.20
2023-03-27T15:51:07.317Z,34.40
2023-03-27T15:53:41.490Z,34.80
2023-03-27T15:56:20.810Z,35.60
2023-03-27T15:58:50.968Z,37.30
2023-03-27T16:01:28.868Z,35.40
2023-03-27T16:04:02.533Z,35.90
2023-03-27T16:06:38.565Z,35.10
2023-03-27T16:09:19.284Z,35.70
2023-03-27T16:11:47.723Z,34.20
2023-03-27T16:14:41.231Z,36.40
2023-03-27T16:17:15.364Z,40.20
2023-03-27T16:19:53.729Z,34.60
2023-03-27T16:22:31.899Z,36.20
2023-03-27T16:25:00.322Z,34.90
2023-03-27T16:27:33.632Z,37.80
2023-03-27T16:30:00.410Z,36.10
2023-03-27T16:32:27.210Z,35.80
2023-03-27T16:34:53.958Z,35.60
2023-03-27T16:37:25.047Z,34.40
2023-03-27T16:39:52.679Z,33.00
2023-03-27T16:42:25.640Z,33.80
2023-03-27T16:44:54.055Z,33.40
2023-03-27T16:47:23.060Z,35.90
2023-03-27T16:50:03.655Z,37.80
2023-03-27T16:52:36.821Z,37.40
2023-03-27T16:55:06.970Z,37.70
2023-03-27T16:57:34.532Z,37.00
2023-03-27T17:00:01.285Z,39.10
2023-03-27T17:02:28.865Z,37.50
2023-03-27T17:04:56.123Z,38.40
2023-03-27T17:07:27.201Z,37.20
2023-03-27T17:09:54.204Z,36.00
2023-03-27T17:12:21.044Z,36.70
2023-03-27T17:14:47.820Z,36.30
2023-03-27T17:17:16.698Z,35.50
2023-03-27T17:19:44.449Z,34.70
2023-03-27T17:22:13.017Z,35.20
2023-03-27T17:24:53.431Z,35.70
2023-03-27T17:27:25.819Z,35.00
2023-03-27T17:29:52.683Z,35.20
2023-03-27T17:32:19.327Z,35.60
2023-03-27T17:34:46.199Z,35.50
2023-03-27T17:37:12.955Z,35.70
2023-03-27T17:39:39.728Z,34.90
2023-03-27T17:42:06.735Z,35.00
2023-03-27T17:44:33.404Z,34.80
2023-03-27T17:47:00.758Z,34.90
2023-03-27T17:49:29.558Z,35.50
2023-03-27T17:51:56.453Z,35.90
2023-03-27T17:54:23.246Z,35.20
2023-03-27T17:56:49.901Z,34.70
2023-03-27T17:59:16.899Z,34.80
2023-03-27T18:01:45.020Z,35.20
2023-03-27T18:04:12.212Z,35.50
2023-03-27T18:06:38.952Z,35.40
2023-03-27T18:09:07.398Z,34.90
2023-03-27T18:11:34.199Z,36.00
2023-03-27T18:14:01.266Z,37.80
2023-03-27T18:16:28.900Z,37.40
2023-03-27T18:18:57.458Z,36.80
2023-03-27T18:21:24.364Z,36.80
2023-03-27T18:23:53.428Z,36.50
2023-03-27T18:26:20.634Z,36.60
2023-03-27T18:28:47.401Z,36.20
2023-03-27T18:31:15.260Z,35.90
2023-03-27T18:33:42.113Z,36.40
2023-03-27T18:36:10.804Z,36.40
2023-03-27T18:38:39.990Z,35.50
2023-03-27T18:41:07.091Z,36.30
2023-03-27T18:43:34.086Z,35.80
2023-03-27T18:46:04.222Z,36.00
2023-03-27T18:48:31.471Z,36.20
2023-03-27T18:51:00.644Z,36.50
2023-03-27T18:53:27.705Z,36.50
2023-03-27T18:55:55.274Z,37.10
2023-03-27T18:58:26.627Z,37.00
2023-03-27T19:00:54.687Z,37.20
2023-03-27T19:03:23.518Z,37.30
2023-03-27T19:08:19.398Z,38.80
2023-03-27T19:10:46.408Z,38.60
2023-03-27T19:13:13.076Z,39.20
2023-03-27T19:15:40.824Z,39.90
2023-03-27T19:18:08.019Z,39.60
2023-03-27T19:20:34.764Z,39.30
2023-03-27T19:23:01.530Z,39.70
2023-03-27T19:25:28.345Z,39.70
2023-03-27T19:27:55.112Z,39.80
2023-03-27T19:30:21.903Z,39.90
2023-03-27T19:32:50.452Z,40.20
2023-03-27T19:35:22.610Z,40.20
2023-03-27T19:37:49.307Z,40.20
2023-03-27T19:40:16.392Z,40.50
2023-03-27T19:42:43.113Z,40.60
2023-03-27T19:45:10.327Z,40.40
2023-03-27T19:47:37.319Z,40.50
2023-03-27T19:50:06.808Z,40.30
2023-03-27T19:52:33.495Z,40.60
2023-03-27T19:55:00.636Z,40.80
2023-03-27T19:57:27.685Z,41.20
2023-03-27T19:59:54.393Z,41.20
2023-03-27T20:02:21.394Z,41.30
2023-03-27T20:04:48.156Z,42.10
2023-03-27T20:07:14.823Z,42.00
2023-03-27T20:09:42.629Z,41.90
2023-03-27T20:12:11.248Z,42.10
2023-03-27T20:14:38.086Z,41.90
2023-03-27T20:17:07.975Z,41.90
2023-03-27T20:19:46.129Z,41.90
2023-03-27T20:22:12.866Z,42.00
2023-03-27T20:24:40.239Z,42.00
2023-03-27T20:27:07.139Z,42.30
2023-03-27T20:29:33.884Z,42.40
2023-03-27T20:32:00.548Z,42.70
2023-03-27T20:34:27.316Z,42.80
2023-03-27T20:36:54.884Z,42.80
2023-03-27T20:39:21.613Z,43.00
2023-03-27T20:41:49.034Z,43.00
2023-03-27T20:44:16.357Z,43.00
2023-03-27T20:46:47.688Z,42.90
2023-03-27T20:57:02.878Z,43.10
2023-03-27T20:59:30.954Z,43.40
2023-03-27T21:01:59.175Z,43.60
2023-03-27T21:04:27.985Z,43.80
2023-03-27T21:11:54.963Z,43.90
2023-03-27T21:14:23.111Z,44.30
2023-03-27T21:16:50.296Z,44.50
2023-03-27T22:08:37.799Z,46.90
2023-03-27T22:11:04.706Z,47.00
2023-03-27T22:13:31.524Z,47.20
2023-03-27T22:15:58.444Z,47.10
2023-03-27T22:18:25.582Z,47.10
2023-03-27T22:20:52.331Z,47.40
2023-03-27T22:23:19.102Z,47.20
2023-03-27T22:33:18.254Z,47.20
2023-03-27T23:37:37.928Z,47.50
2023-03-27T23:40:05.109Z,48.20
2023-03-27T23:42:32.055Z,48.70
2023-03-27T23:44:58.811Z,49.20
2023-03-27T23:47:25.797Z,48.70
2023-03-27T23:49:52.564Z,48.90
2023-03-27T23:52:19.281Z,48.80
2023-03-27T23:54:45.970Z,48.70
2023-03-27T23:57:12.674Z,48.70
2023-03-27T23:59:40.569Z,48.60
